Meteo Giornale » Osservazioni meteo Stati Uniti (USA) » Rockford Greater Rockford
ore: 04:54 - Osservazioni Meteo Rockford Greater Rockford
Lat. 42° 11' N Lon. 89° 5' W Alt. 224 metri s.l.m.
22 °C
Nuvoloso
Temp. 24 Ore
22 °C
31 °C
Nord
5.5 Km/h
Dew point 22 °C
Umidità 100 %
Visibilità 11 Km
Il sole sorge alle ore 06:22
Il sole tramonta alle ore 19:30
| Data e Ora | Cielo e Fenomeni | T °C | DP °C | Um. % | Pres. hPa | Vis. km | Vento km/h | |
|---|---|---|---|---|---|---|---|---|
| Oggi h: 04:54 | Nuvoloso | 22 | 22 | 100 | 1014 | 11 | N 5.5 | |
| Oggi h: 03:54 | Poco Nuvoloso | 22 | 22 | 100 | 1014 | 11 | N 0 | |
| Oggi h: 02:54 | Poco Nuvoloso | 23 | 22 | 94 | 1014 | 13 | S 7.4 | |
| Oggi h: 01:54 | Nuvoloso | 22 | 22 | 100 | 1014 | 13 | N 0 | |
| Oggi h: 00:54 | Molto Nuvoloso | 23 | 22 | 94 | 1014 | 13 | N 0 | |
| Ieri h: 23:54 | Nuvoloso | 23 | 22 | 94 | 1014 | 10 | N 0 | |
| Ieri h: 22:54 | Molto Nuvoloso | 24 | 23 | 94 | 1014 | 10 | N 5.5 | |
| Ieri h: 21:54 | Molto Nuvoloso | 26 | 23 | 83 | 1014 | 10 | N 0 | |
| Ieri h: 20:54 | Molto Nuvoloso | 27 | 23 | 78 | 1014 | 10 | N 0 | |
| Ieri h: 19:54 | Molto Nuvoloso | 27 | 23 | 78 | 1014 | 10 | N 5.5 | |
| Ieri h: 18:54 | Molto Nuvoloso | 28 | 23 | 74 | 1013 | 10 | S 9.3 | |
| Ieri h: 17:54 | Molto Nuvoloso | 30 | 23 | 66 | 1012 | 10 | S/SO 7.4 | |
| Ieri h: 16:54 | Molto Nuvoloso | 31 | 22 | 58 | 1013 | 10 | SO 16.7 | |
| Ieri h: 15:54 | Molto Nuvoloso | 31 | 22 | 58 | 1012 | 10 | S 20.3 | |
| Ieri h: 14:54 | Molto Nuvoloso | 31 | 22 | 58 | 1012 | 10 | S 18.5 | |
| Ieri h: 14:12 | Temporale | 30 | 21 | 58 | 1014 | 10 | O/SO 16.7 | |
| Ieri h: 13:54 | Nuvoloso | 31 | 22 | 58 | 1013 | 10 | S/SO 14.8 | |
| Ieri h: 12:54 | Molto Nuvoloso | 31 | 20 | 52 | 1013 | 10 | SO 20.3 | |
| Ieri h: 11:54 | Molto Nuvoloso | 28 | 21 | 65 | 1014 | 10 | S 18.5 | |
| Ieri h: 10:54 | Molto Nuvoloso | 27 | 19 | 61 | 1014 | 10 | S 22.2 | |
| Ieri h: 09:54 | Molto Nuvoloso | 27 | 19 | 61 | 1013 | 10 | S 22.2 | |
| Ieri h: 08:54 | Molto Nuvoloso | 25 | 19 | 69 | 1013 | 10 | S 18.5 | |
| Ieri h: 07:54 | Coperto | 24 | 18 | 69 | 1013 | 10 | S 13 | |
| Ieri h: 06:54 | Coperto | 23 | 18 | 73 | 1013 | 10 | S 11.1 | |
| Ieri h: 05:54 | Molto Nuvoloso | 22 | 18 | 78 | 1012 | 10 | S 13 | |



